createdAt,value
2023-03-15T00:00:25.483Z,-0.33
2023-03-15T00:02:57.099Z,-0.36
2023-03-15T00:05:27.197Z,-0.37
2023-03-15T00:07:58.507Z,-0.36
2023-03-15T00:10:29.367Z,-0.37
2023-03-15T00:12:57.759Z,-0.40
2023-03-15T00:15:25.955Z,-0.40
2023-03-15T00:17:54.106Z,-0.42
2023-03-15T00:20:23.934Z,-0.42
2023-03-15T00:22:56.341Z,-0.46
2023-03-15T00:25:24.441Z,-0.46
2023-03-15T00:28:02.100Z,-0.45
2023-03-15T00:30:30.513Z,-0.51
2023-03-15T00:32:58.813Z,-0.49
2023-03-15T00:35:27.083Z,-0.49
2023-03-15T00:37:57.908Z,-0.53
2023-03-15T00:40:26.457Z,-0.55
2023-03-15T00:43:01.433Z,-0.55
2023-03-15T00:45:29.506Z,-0.56
2023-03-15T00:47:58.087Z,-0.58
2023-03-15T00:50:26.902Z,-0.60
2023-03-15T00:52:56.467Z,-0.62
2023-03-15T00:55:24.779Z,-0.62
2023-03-15T00:57:52.945Z,-0.64
2023-03-15T01:00:24.770Z,-0.67
2023-03-15T01:02:54.658Z,-0.67
2023-03-15T01:05:23.310Z,-0.67
2023-03-15T01:07:52.911Z,-0.68
2023-03-15T01:10:22.835Z,-0.69
2023-03-15T01:12:50.988Z,-0.70
2023-03-15T01:15:19.531Z,-0.70
2023-03-15T01:17:47.727Z,-0.73
2023-03-15T01:20:16.581Z,-0.71
2023-03-15T01:22:45.141Z,-0.70
2023-03-15T01:25:13.730Z,-0.72
2023-03-15T01:27:43.301Z,-0.72
2023-03-15T01:30:12.682Z,-0.73
2023-03-15T01:32:40.927Z,-0.74
2023-03-15T01:35:10.153Z,-0.73
2023-03-15T01:37:38.288Z,-0.74
2023-03-15T01:40:09.438Z,-0.74
2023-03-15T01:42:55.886Z,-0.75
2023-03-15T01:46:05.594Z,-0.76
2023-03-15T01:48:38.222Z,-0.78
2023-03-15T01:51:13.939Z,-0.78
2023-03-15T01:53:50.037Z,-0.79
2023-03-15T01:56:18.636Z,-0.79
2023-03-15T01:58:50.112Z,-0.81
2023-03-15T02:01:18.924Z,-0.80
2023-03-15T02:03:51.590Z,-0.80
2023-03-15T02:06:21.554Z,-0.81
2023-03-15T02:08:53.876Z,-0.82
2023-03-15T02:11:25.609Z,-0.82
2023-03-15T02:13:58.108Z,-0.86
2023-03-15T02:16:26.671Z,-0.88
2023-03-15T02:18:55.416Z,-0.89
2023-03-15T02:21:34.367Z,-0.91
2023-03-15T02:24:13.936Z,-0.91
2023-03-15T02:26:46.194Z,-0.92
2023-03-15T02:29:18.660Z,-0.94
2023-03-15T02:32:04.832Z,-0.93
2023-03-15T02:34:33.488Z,-0.94
2023-03-15T02:37:02.363Z,-0.94
2023-03-15T02:39:30.576Z,-0.95
2023-03-15T02:42:01.614Z,-0.97
2023-03-15T02:44:34.379Z,-0.97
2023-03-15T02:47:06.297Z,-0.96
2023-03-15T02:49:39.136Z,-0.97
2023-03-15T02:52:07.965Z,-0.99
2023-03-15T02:54:36.775Z,-0.98
2023-03-15T02:57:05.344Z,-0.98
2023-03-15T02:59:34.886Z,-1.00
2023-03-15T03:02:03.181Z,-1.00
2023-03-15T03:04:31.819Z,-1.00
2023-03-15T03:07:00.344Z,-1.03
2023-03-15T03:09:29.691Z,-1.02
2023-03-15T03:12:00.614Z,-1.02
2023-03-15T03:14:28.773Z,-1.02
2023-03-15T03:16:58.696Z,-1.03
2023-03-15T03:19:27.013Z,-1.04
2023-03-15T03:21:55.177Z,-1.06
2023-03-15T03:24:25.919Z,-1.06
2023-03-15T03:26:58.058Z,-1.07
2023-03-15T03:29:27.300Z,-1.08
2023-03-15T03:31:57.537Z,-1.11
2023-03-15T03:34:25.652Z,-1.12
2023-03-15T03:36:57.110Z,-1.16
2023-03-15T03:39:25.263Z,-1.17
2023-03-15T03:41:56.938Z,-1.17
2023-03-15T03:44:25.146Z,-1.18
2023-03-15T03:46:53.581Z,-1.20
2023-03-15T03:49:23.132Z,-1.20
2023-03-15T03:51:51.517Z,-1.19
2023-03-15T03:54:21.462Z,-1.19
2023-03-15T03:56:50.408Z,-1.19
2023-03-15T03:59:18.712Z,-1.17
2023-03-15T04:01:48.329Z,-1.16
2023-03-15T04:04:16.502Z,-1.18
2023-03-15T04:06:48.386Z,-1.18
2023-03-15T04:09:18.857Z,-1.15
2023-03-15T04:11:47.412Z,-1.15
2023-03-15T04:14:16.780Z,-1.15
2023-03-15T04:16:48.271Z,-1.15
2023-03-15T04:19:18.721Z,-1.17
2023-03-15T04:22:06.975Z,-1.12
2023-03-15T04:24:35.735Z,-1.12
2023-03-15T04:27:04.146Z,-1.10
2023-03-15T04:29:32.253Z,-1.12
2023-03-15T04:32:01.832Z,-1.11
2023-03-15T04:34:30.485Z,-1.10
2023-03-15T04:36:59.165Z,-1.10
2023-03-15T04:39:28.947Z,-1.10
2023-03-15T04:41:57.018Z,-1.08
2023-03-15T04:44:26.773Z,-1.09
2023-03-15T04:46:55.448Z,-1.10
2023-03-15T04:49:23.871Z,-1.10
2023-03-15T04:51:52.068Z,-1.13
2023-03-15T04:54:20.762Z,-1.11
2023-03-15T04:56:50.265Z,-1.12
2023-03-15T04:59:21.396Z,-1.12
2023-03-15T05:01:49.753Z,-1.13
2023-03-15T05:04:18.886Z,-1.12
2023-03-15T05:06:47.117Z,-1.13
2023-03-15T05:09:26.603Z,-1.13
2023-03-15T05:11:59.084Z,-1.13
2023-03-15T05:14:27.323Z,-1.13
2023-03-15T05:16:56.460Z,-1.13
2023-03-15T05:19:24.728Z,-1.13
2023-03-15T05:21:54.908Z,-1.14
2023-03-15T05:24:23.667Z,-1.13
2023-03-15T05:26:54.427Z,-1.12
2023-03-15T05:29:24.407Z,-1.13
2023-03-15T05:31:53.623Z,-1.11
2023-03-15T05:34:24.378Z,-1.11
2023-03-15T05:36:52.762Z,-1.08
2023-03-15T05:39:23.091Z,-1.05
2023-03-15T05:41:51.893Z,-1.03
2023-03-15T05:44:20.152Z,-1.02
2023-03-15T05:46:49.672Z,-1.00
2023-03-15T05:49:17.860Z,-0.95
2023-03-15T05:51:45.973Z,-0.93
2023-03-15T05:54:14.512Z,-0.89
2023-03-15T05:56:42.718Z,-0.85
2023-03-15T05:59:12.753Z,-0.81
2023-03-15T06:01:40.860Z,-0.76
2023-03-15T06:04:10.592Z,-0.72
2023-03-15T06:06:38.974Z,-0.66
2023-03-15T06:09:07.184Z,-0.60
2023-03-15T06:11:35.359Z,-0.57
2023-03-15T06:14:03.769Z,-0.50
2023-03-15T06:16:31.926Z,-0.43
2023-03-15T06:19:00.175Z,-0.40
2023-03-15T06:21:29.800Z,-0.35
2023-03-15T06:23:58.149Z,-0.30
2023-03-15T06:26:26.523Z,-0.24
2023-03-15T06:28:54.716Z,-0.18
2023-03-15T06:31:22.901Z,-0.10
2023-03-15T06:33:51.142Z,-0.09
2023-03-15T06:36:19.466Z,0.04
2023-03-15T06:38:49.168Z,0.08
2023-03-15T06:41:27.069Z,0.14
2023-03-15T06:43:55.239Z,0.21
2023-03-15T06:46:23.647Z,0.28
2023-03-15T06:48:51.852Z,0.34
2023-03-15T06:51:20.096Z,0.42
2023-03-15T06:53:49.742Z,0.52
2023-03-15T06:56:17.981Z,0.54
2023-03-15T06:58:46.210Z,0.60
2023-03-15T07:01:15.130Z,0.66
2023-03-15T07:03:43.682Z,0.74
2023-03-15T07:06:12.316Z,0.77
2023-03-15T07:08:41.110Z,0.82
2023-03-15T07:11:11.202Z,0.89
2023-03-15T07:13:39.474Z,0.94
2023-03-15T07:16:08.543Z,0.97
2023-03-15T07:18:36.780Z,0.97
2023-03-15T07:21:10.830Z,0.99
2023-03-15T07:23:38.969Z,1.04
2023-03-15T07:26:07.099Z,1.07
2023-03-15T07:28:36.689Z,1.10
2023-03-15T07:31:07.152Z,1.14
2023-03-15T07:33:36.533Z,1.18
2023-03-15T07:36:06.317Z,1.23
2023-03-15T07:38:35.853Z,1.27
2023-03-15T07:41:05.204Z,1.33
2023-03-15T07:43:33.796Z,1.40
2023-03-15T07:46:03.809Z,1.40
2023-03-15T07:48:32.071Z,1.47
2023-03-15T07:51:00.482Z,1.51
2023-03-15T07:53:28.919Z,1.52
2023-03-15T07:55:57.397Z,1.54
2023-03-15T07:58:26.101Z,1.57
2023-03-15T08:00:56.515Z,1.63
2023-03-15T08:03:27.761Z,1.67
2023-03-15T08:05:57.630Z,1.70
2023-03-15T08:08:26.406Z,1.77
2023-03-15T08:10:57.059Z,1.82
2023-03-15T08:13:25.929Z,1.88
2023-03-15T08:15:54.368Z,1.92
2023-03-15T08:18:23.005Z,1.95
2023-03-15T08:20:53.066Z,1.99
2023-03-15T08:23:22.208Z,2.03
2023-03-15T08:25:50.525Z,2.08
2023-03-15T08:28:18.809Z,2.13
2023-03-15T08:30:47.303Z,2.22
2023-03-15T08:33:16.047Z,2.21
2023-03-15T08:35:45.014Z,2.23
2023-03-15T08:38:14.682Z,2.25
2023-03-15T08:40:42.865Z,2.28
2023-03-15T08:43:11.038Z,2.34
2023-03-15T08:45:56.762Z,2.38
2023-03-15T08:48:27.395Z,2.45
2023-03-15T08:50:55.684Z,2.55
2023-03-15T08:53:25.590Z,2.64
2023-03-15T08:55:53.848Z,2.69
2023-03-15T08:58:21.986Z,2.71
2023-03-15T09:00:51.544Z,2.75
2023-03-15T09:03:19.848Z,2.80
2023-03-15T09:05:48.068Z,2.85
2023-03-15T09:08:17.046Z,2.86
2023-03-15T09:10:48.420Z,2.91
2023-03-15T09:13:16.517Z,2.97
2023-03-15T09:15:44.612Z,3.03
2023-03-15T09:18:13.784Z,3.08
2023-03-15T09:20:41.947Z,3.09
2023-03-15T09:23:10.162Z,3.12
2023-03-15T09:25:38.520Z,3.13
2023-03-15T09:28:10.667Z,3.13
2023-03-15T09:30:40.907Z,3.17
2023-03-15T09:33:09.598Z,3.21
2023-03-15T09:35:37.994Z,3.26
2023-03-15T09:38:06.433Z,3.32
2023-03-15T09:40:36.411Z,3.30
2023-03-15T09:43:16.354Z,3.36
2023-03-15T09:46:01.907Z,3.40
2023-03-15T09:48:35.618Z,3.43
2023-03-15T09:51:08.339Z,3.43
2023-03-15T09:53:41.827Z,3.54
2023-03-15T09:56:24.300Z,3.60
2023-03-15T09:58:58.219Z,3.71
2023-03-15T10:01:32.219Z,3.81
2023-03-15T10:04:07.223Z,3.80
2023-03-15T10:06:37.849Z,3.78
2023-03-15T10:09:15.138Z,3.83
2023-03-15T10:11:51.330Z,3.80
2023-03-15T10:14:33.978Z,3.83
2023-03-15T10:17:10.958Z,3.89
2023-03-15T10:19:46.563Z,3.90
2023-03-15T10:22:24.452Z,3.94
2023-03-15T10:24:56.637Z,3.96
2023-03-15T10:27:33.234Z,3.97
2023-03-15T10:30:04.432Z,3.99
2023-03-15T10:32:39.338Z,4.04
2023-03-15T10:35:15.838Z,4.13
2023-03-15T10:37:44.288Z,4.17
2023-03-15T10:40:16.333Z,4.23
2023-03-15T10:42:46.146Z,4.27
2023-03-15T10:45:23.625Z,4.26
2023-03-15T10:48:00.960Z,4.24
2023-03-15T10:50:44.025Z,4.21
2023-03-15T10:53:20.664Z,4.19
2023-03-15T10:55:50.743Z,4.27
2023-03-15T10:58:30.444Z,4.31
2023-03-15T11:01:07.480Z,4.36
2023-03-15T11:03:36.572Z,4.40
2023-03-15T11:06:19.840Z,4.42
2023-03-15T11:08:49.534Z,4.48
2023-03-15T11:11:17.673Z,4.49
2023-03-15T11:14:00.901Z,4.51
2023-03-15T11:16:36.187Z,4.56
2023-03-15T11:19:13.245Z,4.55
2023-03-15T11:21:46.340Z,4.54
2023-03-15T11:24:24.254Z,4.53
2023-03-15T11:26:55.158Z,4.58
2023-03-15T11:29:27.094Z,4.64
2023-03-15T11:31:58.214Z,4.62
2023-03-15T11:34:37.182Z,4.67
2023-03-15T11:37:13.158Z,4.78
2023-03-15T11:39:45.771Z,4.84
2023-03-15T11:42:21.411Z,4.87
2023-03-15T11:44:52.881Z,4.86
2023-03-15T11:47:33.430Z,4.91
2023-03-15T11:50:02.069Z,4.94
2023-03-15T11:52:31.154Z,4.93
2023-03-15T11:55:01.770Z,4.96
2023-03-15T11:57:45.060Z,4.99
2023-03-15T12:00:22.195Z,5.02
2023-03-15T12:02:54.992Z,5.09
2023-03-15T12:05:54.636Z,5.16
2023-03-15T12:08:26.891Z,5.20
2023-03-15T12:10:55.646Z,5.32
2023-03-15T12:13:29.053Z,5.37
2023-03-15T12:15:58.344Z,5.38
2023-03-15T12:18:43.785Z,5.40
2023-03-15T12:21:16.053Z,5.44
2023-03-15T12:23:57.959Z,5.46
2023-03-15T12:26:39.802Z,5.48
2023-03-15T12:29:14.525Z,5.49
2023-03-15T12:31:53.213Z,5.52
2023-03-15T12:34:31.908Z,5.52
2023-03-15T12:37:04.647Z,5.53
2023-03-15T12:39:46.389Z,5.50
2023-03-15T12:42:50.561Z,5.50
2023-03-15T12:45:48.989Z,5.50
2023-03-15T12:48:35.609Z,5.56
2023-03-15T12:51:16.140Z,5.58
2023-03-15T12:53:50.586Z,5.69
2023-03-15T12:56:42.166Z,5.72
2023-03-15T12:59:33.683Z,5.51
2023-03-15T13:02:09.549Z,5.39
2023-03-15T13:04:38.538Z,5.31
2023-03-15T13:07:48.899Z,5.35
2023-03-15T13:10:40.483Z,5.34
2023-03-15T13:13:20.937Z,5.32
2023-03-15T13:16:02.237Z,5.24
2023-03-15T13:18:34.508Z,5.22
2023-03-15T13:21:15.208Z,5.01
2023-03-15T13:23:52.048Z,4.95
2023-03-15T13:26:50.061Z,4.86
2023-03-15T13:29:21.268Z,4.83
2023-03-15T13:32:02.294Z,4.86
2023-03-15T13:34:34.413Z,4.93
2023-03-15T13:37:04.183Z,5.03
2023-03-15T13:39:35.821Z,5.05
2023-03-15T13:42:06.509Z,5.11
2023-03-15T13:44:35.254Z,5.09
2023-03-15T13:47:03.751Z,5.13
2023-03-15T13:49:33.707Z,5.07
2023-03-15T13:52:05.465Z,5.14
2023-03-15T13:54:36.310Z,5.18
2023-03-15T13:57:10.869Z,5.26
2023-03-15T13:59:43.495Z,5.33
2023-03-15T14:02:17.454Z,5.42
2023-03-15T14:04:52.195Z,5.46
2023-03-15T14:07:27.846Z,5.48
2023-03-15T14:10:27.051Z,5.50
2023-03-15T14:12:56.314Z,5.59
2023-03-15T14:15:29.738Z,5.66
2023-03-15T14:18:05.146Z,5.79
2023-03-15T14:20:43.568Z,5.85
2023-03-15T14:23:15.273Z,5.93
2023-03-15T14:25:46.261Z,6.11
2023-03-15T14:28:17.612Z,6.25
2023-03-15T14:30:58.237Z,6.26
2023-03-15T14:33:31.570Z,6.30
2023-03-15T14:36:02.040Z,6.25
2023-03-15T14:38:34.920Z,6.26
2023-03-15T14:41:23.629Z,6.20
2023-03-15T14:43:51.881Z,6.15
2023-03-15T14:46:20.459Z,6.17
2023-03-15T14:48:50.713Z,6.15
2023-03-15T14:51:21.201Z,6.17
2023-03-15T14:53:53.437Z,6.10
2023-03-15T14:56:23.495Z,6.00
2023-03-15T14:58:54.276Z,5.95
2023-03-15T15:01:26.119Z,5.94
2023-03-15T15:03:58.936Z,5.89
2023-03-15T15:06:29.549Z,5.91
2023-03-15T15:08:59.956Z,5.90
2023-03-15T15:11:29.963Z,5.84
2023-03-15T15:13:58.228Z,5.75
2023-03-15T15:16:26.943Z,5.69
2023-03-15T15:18:55.773Z,5.62
2023-03-15T15:21:27.569Z,5.56
2023-03-15T15:23:59.249Z,5.47
2023-03-15T15:26:31.411Z,5.44
2023-03-15T15:29:00.951Z,5.36
2023-03-15T15:31:33.813Z,5.33
2023-03-15T15:34:08.655Z,5.29
2023-03-15T15:36:39.983Z,5.27
2023-03-15T15:39:19.470Z,5.25
2023-03-15T15:41:51.583Z,5.21
2023-03-15T15:44:21.998Z,5.21
2023-03-15T15:46:50.690Z,5.20
2023-03-15T15:49:19.664Z,5.17
2023-03-15T15:51:50.608Z,5.15
2023-03-15T15:54:21.719Z,5.09
2023-03-15T15:56:54.160Z,5.07
2023-03-15T15:59:25.635Z,5.05
2023-03-15T16:02:02.950Z,5.00
2023-03-15T16:04:33.056Z,4.96
2023-03-15T16:07:03.598Z,4.93
2023-03-15T16:09:35.975Z,4.89
2023-03-15T16:12:13.899Z,4.86
2023-03-15T16:14:42.528Z,4.81
2023-03-15T16:17:13.660Z,4.74
2023-03-15T16:19:41.907Z,4.70
2023-03-15T16:22:10.538Z,4.63
2023-03-15T16:24:43.395Z,4.57
2023-03-15T16:27:16.830Z,4.53
2023-03-15T16:29:50.070Z,4.48
2023-03-15T16:32:32.919Z,4.42
2023-03-15T16:35:09.515Z,4.36
2023-03-15T16:37:38.170Z,4.31
2023-03-15T16:40:10.976Z,4.21
2023-03-15T16:42:41.064Z,4.10
2023-03-15T16:45:14.099Z,4.10
2023-03-15T16:47:42.805Z,4.06
2023-03-15T16:50:12.232Z,4.00
2023-03-15T16:52:42.166Z,3.96
2023-03-15T16:55:14.427Z,3.90
2023-03-15T16:57:44.790Z,3.82
2023-03-15T17:00:17.243Z,3.75
2023-03-15T17:02:47.783Z,3.65
2023-03-15T17:05:19.965Z,3.59
2023-03-15T17:07:49.663Z,3.51
2023-03-15T17:10:23.320Z,3.44
2023-03-15T17:12:54.545Z,3.38
2023-03-15T17:15:25.606Z,3.33
2023-03-15T17:17:57.261Z,3.27
2023-03-15T17:20:27.156Z,3.18
2023-03-15T17:22:57.779Z,3.10
2023-03-15T17:25:26.730Z,3.04
2023-03-15T17:27:57.995Z,2.98
2023-03-15T17:30:27.687Z,2.93
2023-03-15T17:32:56.321Z,2.86
2023-03-15T17:35:29.405Z,2.81
2023-03-15T17:37:57.941Z,2.78
2023-03-15T17:40:29.199Z,2.76
2023-03-15T17:43:01.129Z,2.70
2023-03-15T17:45:31.092Z,2.66
2023-03-15T17:47:59.848Z,2.61
2023-03-15T17:50:31.677Z,2.57
2023-03-15T17:53:01.796Z,2.52
2023-03-15T17:55:31.495Z,2.49
2023-03-15T17:58:01.084Z,2.42
2023-03-15T18:00:32.600Z,2.40
2023-03-15T18:03:01.533Z,2.39
2023-03-15T18:05:30.751Z,2.36
2023-03-15T18:08:00.121Z,2.34
2023-03-15T18:10:35.850Z,2.30
2023-03-15T18:13:06.086Z,2.26
2023-03-15T18:15:34.250Z,2.24
2023-03-15T18:18:04.107Z,2.17
2023-03-15T18:20:34.049Z,2.13
2023-03-15T18:23:02.332Z,2.08
2023-03-15T18:25:33.928Z,2.01
2023-03-15T18:28:03.087Z,1.96
2023-03-15T18:30:33.836Z,1.88
2023-03-15T18:33:03.831Z,1.84
2023-03-15T18:35:34.405Z,1.79
2023-03-15T18:38:04.137Z,1.73
2023-03-15T18:40:33.807Z,1.69
2023-03-15T18:43:04.285Z,1.64
2023-03-15T18:45:36.362Z,1.60
2023-03-15T18:48:04.743Z,1.57
2023-03-15T18:50:33.662Z,1.55
2023-03-15T18:53:05.010Z,1.51
2023-03-15T18:55:42.328Z,1.46
2023-03-15T18:58:13.201Z,1.41
2023-03-15T19:00:42.929Z,1.39
2023-03-15T19:03:12.334Z,1.35
2023-03-15T19:05:40.601Z,1.32
2023-03-15T19:08:11.211Z,1.29
2023-03-15T19:10:40.469Z,1.26
2023-03-15T19:13:08.785Z,1.24
2023-03-15T19:15:37.107Z,1.21
2023-03-15T19:18:07.109Z,1.16
2023-03-15T19:20:36.990Z,1.13
2023-03-15T19:23:08.232Z,1.06
2023-03-15T19:25:36.438Z,1.00
2023-03-15T19:28:04.704Z,0.99
2023-03-15T19:30:33.889Z,0.96
2023-03-15T19:33:02.145Z,0.95
2023-03-15T19:35:33.549Z,0.94
2023-03-15T19:38:01.915Z,0.91
2023-03-15T19:40:30.586Z,0.85
2023-03-15T19:42:58.861Z,0.80
2023-03-15T19:45:27.594Z,0.74
2023-03-15T19:47:55.767Z,0.69
2023-03-15T19:50:24.242Z,0.68
2023-03-15T19:52:53.864Z,0.66
2023-03-15T19:55:22.710Z,0.67
2023-03-15T19:57:50.870Z,0.64
2023-03-15T20:00:20.795Z,0.62
2023-03-15T20:02:49.185Z,0.64
2023-03-15T20:05:20.378Z,0.64
2023-03-15T20:07:50.731Z,0.63
2023-03-15T20:10:22.425Z,0.65
2023-03-15T20:12:52.189Z,0.68
2023-03-15T20:15:21.169Z,0.73
2023-03-15T20:17:49.340Z,0.73
2023-03-15T20:20:19.046Z,0.73
2023-03-15T20:22:48.044Z,0.72
2023-03-15T20:25:17.653Z,0.69
2023-03-15T20:27:47.417Z,0.65
2023-03-15T20:30:17.306Z,0.60
2023-03-15T20:32:45.713Z,0.57
2023-03-15T20:35:14.061Z,0.60
2023-03-15T20:37:43.063Z,0.62
2023-03-15T20:40:13.428Z,0.64
2023-03-15T20:42:42.320Z,0.68
2023-03-15T20:45:13.816Z,0.69
2023-03-15T20:47:42.883Z,0.73
2023-03-15T20:50:13.201Z,0.73
2023-03-15T20:52:42.854Z,0.73
2023-03-15T20:55:12.227Z,0.71
2023-03-15T20:57:42.203Z,0.71
2023-03-15T21:00:21.905Z,0.68
2023-03-15T21:02:50.692Z,0.66
2023-03-15T21:05:19.798Z,0.64
2023-03-15T21:07:47.920Z,0.62
2023-03-15T21:10:16.276Z,0.61
2023-03-15T21:12:45.712Z,0.58
2023-03-15T21:15:18.139Z,0.56
2023-03-15T21:17:48.966Z,0.53
2023-03-15T21:20:17.820Z,0.49
2023-03-15T21:22:46.140Z,0.48
2023-03-15T21:25:16.040Z,0.45
2023-03-15T21:27:44.246Z,0.43
2023-03-15T21:30:15.550Z,0.40
2023-03-15T21:32:44.756Z,0.37
2023-03-15T21:35:13.449Z,0.31
2023-03-15T21:37:42.083Z,0.28
2023-03-15T21:40:12.412Z,0.21
2023-03-15T21:42:40.902Z,0.16
2023-03-15T21:45:12.106Z,0.12
2023-03-15T21:47:41.825Z,0.08
2023-03-15T21:50:12.066Z,0.07
2023-03-15T21:52:40.306Z,0.04
2023-03-15T21:55:10.406Z,0.04
2023-03-15T21:57:38.946Z,0.05
2023-03-15T22:00:12.151Z,0.05
2023-03-15T22:02:41.787Z,0.06
2023-03-15T22:05:12.091Z,0.06
2023-03-15T22:07:40.312Z,0.03
2023-03-15T22:10:12.804Z,-0.01
2023-03-15T22:12:42.377Z,-0.02
2023-03-15T22:15:12.055Z,-0.04
2023-03-15T22:17:45.235Z,-0.05
2023-03-15T22:20:17.045Z,-0.04
2023-03-15T22:22:45.981Z,-0.06
2023-03-15T22:25:14.493Z,-0.07
2023-03-15T22:27:43.323Z,-0.08
2023-03-15T22:30:15.260Z,-0.11
2023-03-15T22:32:45.338Z,-0.15
2023-03-15T22:35:16.611Z,-0.12
2023-03-15T22:37:45.523Z,-0.13
2023-03-15T22:40:15.331Z,-0.12
2023-03-15T22:42:44.332Z,-0.11
2023-03-15T22:45:13.580Z,-0.09
2023-03-15T22:47:41.739Z,-0.09
2023-03-15T22:50:15.911Z,-0.10
2023-03-15T22:52:44.305Z,-0.09
2023-03-15T22:55:14.049Z,-0.08
2023-03-15T22:57:42.505Z,-0.09
2023-03-15T23:00:14.784Z,-0.08
2023-03-15T23:02:44.224Z,-0.09
2023-03-15T23:05:14.630Z,-0.10
2023-03-15T23:07:43.398Z,-0.10
2023-03-15T23:10:13.136Z,-0.09
2023-03-15T23:12:43.234Z,-0.09
2023-03-15T23:15:14.583Z,-0.08
2023-03-15T23:17:46.022Z,-0.08
2023-03-15T23:20:17.375Z,-0.09
2023-03-15T23:22:51.259Z,-0.09
2023-03-15T23:25:22.721Z,-0.12
2023-03-15T23:27:52.056Z,-0.14
2023-03-15T23:30:20.529Z,-0.15
2023-03-15T23:32:51.027Z,-0.17
2023-03-15T23:35:21.361Z,-0.15
2023-03-15T23:37:49.571Z,-0.14
2023-03-15T23:40:19.467Z,-0.09
2023-03-15T23:42:48.211Z,-0.04
2023-03-15T23:45:16.819Z,-0.05
2023-03-15T23:47:45.981Z,0.01
2023-03-15T23:50:14.707Z,0.05
2023-03-15T23:52:44.559Z,0.05
2023-03-15T23:55:12.800Z,0.04
2023-03-15T23:57:41.469Z,0.03
